Current Weather

Porter County Rgnl

Valparaiso, Indiana (KVPZ)

Report from: Sunday, April 21, 2024 3:56 PM CDT
Current time: Sunday, April 21, 2024 5:03 PM CDT

Nearby weather – Weather history – Daily summaries
Weather forecast

Temperature12.8°C (55.0°F)
Dew point-3.3°C (26.1°F)
Winds 10 kts (5.1 m/s, 11.5 mph) West-Northwest (300°)
Wind gusts 17 kts (8.7 m/s, 19.6 mph)
Visibility10 mi. (16.1 km)
Clouds Sky clear
Altimeter30.12 in.Hg (1020 mB)
Relative humidity32 %
Density altitude-415 ft. (-126 m)
Sea-level pressure102.0 kPa (1020 mB, 30.12 in.Hg)
Remarks Fully automated report
Automated weather observing station with precipitation discriminator
Pressure falling more quickly
Flight conditions Visual Meteorological Conditions
Raw dataKVPZ 212056Z AUTO 30010G17KT 10SM CLR 13/M03 A3012 RMK AO2 SLP201 T01281033 58017
An error has occurred. This application may no longer respond until reloaded. Reload 🗙